Terminal Aerodrome Forecast
Issued by NWS

Home | Current Version | Previous Version | Text Only | Print | Product List | Glossary On
Versions: 1 2 3 4 5 6 7 8 9 10 11 12 13 14
000
FTUS44 KJAN 242300
TAFGTR
TAF
KGTR 242340Z 2500/2524 19004KT P6SM SKC
     FM251700 21011G20KT P6SM FEW040 SCT250
     FM252000 24014G26KT P6SM VCSH BKN040=

USA.gov is the U.S. government's official web portal to all federal, state and local government web resources and services.